Terminal Aerodrome Forecast
Issued by NWS Chicago, IL

Home | Current Version | Previous Version | Text Only | Print | Product List | Glossary Off
Versions: 1 2 3 4 5 6 7 8 9 10 11 12 13 14 15 16 17 18 19 20 21 22 23 24 25 26 27 28

191
FTUS43 KLOT 251723
TAFRFD
TAF
KRFD 251723Z 2518/2618 35011KT P6SM BKN020
     FM252000 34010KT P6SM SCT035
     FM260100 VRB03KT P6SM FEW040
     FM261400 13007KT P6SM BKN100 PROB30 2615/2618 4SM -SHRA OVC040=

USA.gov is the U.S. government's official web portal to all federal, state and local government web resources and services.